M I D A S
Marine Information and Data Acquisition System
Tripno 2222 of the Zeeleeuw from 2011-12-12 08:06:00 to 2011-12-12 15:59:30
Back to CruiseResearch ActivitiesStationsMapUnderway DataData graphs

EquipmentUnitsComment
TimeDGPSUTC
LatitudeDGPSDM.mWGS84
LongitudeDGPSDM.mWGS84
HeadingGyrodeg 
SOGDGPSknotsSpeed over ground
COGDGPSdegCourse over ground
DepthEcho soundermeters200 kHz
Missing or incorrect values are displayed as -999
Navigation data collected by the RV Zeeleeuw from 2011-12-12 08:09:47 to 2011-12-12 16:17:40
                                                                                    Next 1000 lines
Time Latitude Longitude Heading SOG COG Depth
2011-12-12 08:09:57 51°15.472 2°53.908 319.6 11.1 315 11.1
2011-12-12 08:10:02 51°15.484 2°53.891 319.7 11.4 316 11.5
2011-12-12 08:10:07 51°15.495 2°53.873 320.1 11.4 316 11.3
2011-12-12 08:10:12 51°15.504 2°53.86 321.5 11.3 319 11.2
2011-12-12 08:10:18 51°15.518 2°53.84 322.3 11.3 318 11.4
2011-12-12 08:10:23 51°15.53 2°53.822 322.6 11.4 318 11.5
2011-12-12 08:10:28 51°15.542 2°53.804 322.3 11.4 317 11.4
2011-12-12 08:10:32 51°15.551 2°53.791 321.9 11.5 317 11.4
2011-12-12 08:10:38 51°15.565 2°53.771 321.9 11.5 317 11.3
2011-12-12 08:10:43 51°15.577 2°53.755 322 11.5 318 11.8
2011-12-12 08:10:48 51°15.589 2°53.738 322.5 11.5 318 11.6
2011-12-12 08:10:52 51°15.598 2°53.724 322.7 11.4 319 11.3
2011-12-12 08:10:58 51°15.612 2°53.704 322.6 11.3 319 11.3
2011-12-12 08:11:03 51°15.624 2°53.688 323.3 11.4 319 12.1
2011-12-12 08:11:08 51°15.636 2°53.672 323.5 11.2 320 11.4
2011-12-12 08:11:12 51°15.646 2°53.66 323.8 11.2 322 11.6
2011-12-12 08:11:18 51°15.66 2°53.641 325.3 11.3 321 11.7
2011-12-12 08:11:23 51°15.672 2°53.626 325.3 11.2 322 11.8
2011-12-12 08:11:28 51°15.685 2°53.611 326.2 11.3 322 11.6
2011-12-12 08:11:32 51°15.695 2°53.599 326.7 11.2 323 11.3
2011-12-12 08:11:38 51°15.71 2°53.581 327 11.2 323 11.7
2011-12-12 08:11:43 51°15.723 2°53.566 327.2 11.3 324 12.2
2011-12-12 08:11:48 51°15.735 2°53.552 327.8 10.8 324 11.2
2011-12-12 08:11:52 51°15.744 2°53.541 327.9 10.8 326 12.3
2011-12-12 08:11:58 51°15.759 2°53.524 329.4 10.8 324 11.7
2011-12-12 08:12:03 51°15.772 2°53.511 329.2 10.9 325 11.9
2011-12-12 08:12:08 51°15.784 2°53.497 329.7 11 326 12
2011-12-12 08:12:12 51°15.795 2°53.486 330.2 11.2 326 12
2011-12-12 08:12:18 51°15.81 2°53.469 330.3 11.1 327 11.7
2011-12-12 08:12:23 51°15.823 2°53.456 331 11.1 327 11.8
2011-12-12 08:12:28 51°15.836 2°53.442 331.1 11.2 327 12.3
2011-12-12 08:12:32 51°15.846 2°53.431 331.1 11.3 326 12.3
2011-12-12 08:12:38 51°15.862 2°53.414 330 11.3 326 12.1
2011-12-12 08:12:43 51°15.875 2°53.4 330 11.2 326 12
2011-12-12 08:12:48 51°15.887 2°53.386 330.3 11.2 325 12.1
2011-12-12 08:12:52 51°15.897 2°53.375 330 11.1 325 12
2011-12-12 08:12:58 51°15.912 2°53.358 329.6 11.2 324 12.4
2011-12-12 08:13:03 51°15.925 2°53.343 329 11.2 324 12.4
2011-12-12 08:13:08 51°15.938 2°53.328 328.4 11.2 325 11.8
2011-12-12 08:13:12 51°15.948 2°53.317 328.6 11.2 325 12.2
2011-12-12 08:13:18 51°15.964 2°53.301 330.6 11.3 328 12.2
2011-12-12 08:13:23 51°15.977 2°53.287 331.6 11.3 326 12
2011-12-12 08:13:28 51°15.99 2°53.274 331.6 11.2 329 11.9
2011-12-12 08:13:32 51°16.001 2°53.264 332.7 11.3 329 12
2011-12-12 08:13:38 51°16.017 2°53.249 333.5 11.2 329 12.6
2011-12-12 08:13:43 51°16.03 2°53.237 333.7 11.1 330 12.2
2011-12-12 08:13:48 51°16.044 2°53.224 334.6 11 331 11.6
2011-12-12 08:13:52 51°16.054 2°53.216 335.4 10.7 333 11.4
2011-12-12 08:13:58 51°16.07 2°53.204 336.5 10.8 334 13
2011-12-12 08:14:03 51°16.084 2°53.193 336.5 10.7 333 12.6
2011-12-12 08:14:08 51°16.097 2°53.182 336.7 10.7 332 11.9
2011-12-12 08:14:13 51°16.11 2°53.171 336.1 10.8 330 12.1
2011-12-12 08:14:18 51°16.124 2°53.16 335.7 10.8 332 12
2011-12-12 08:14:23 51°16.137 2°53.148 336.1 10.7 330 11.8
2011-12-12 08:14:28 51°16.15 2°53.136 335.9 10.7 332 11.6
2011-12-12 08:14:32 51°16.16 2°53.126 336.5 10.8 331 12.3
2011-12-12 08:14:38 51°16.176 2°53.113 336.2 10.8 330 12
2011-12-12 08:14:43 51°16.188 2°53.1 335.1 10.9 329 11.8
2011-12-12 08:14:48 51°16.201 2°53.088 334.4 10.9 329 11.5
2011-12-12 08:14:52 51°16.212 2°53.078 334.2 11 329 12.3
2011-12-12 08:14:58 51°16.227 2°53.062 334.1 10.9 329 11.5
2011-12-12 08:15:03 51°16.24 2°53.05 333.9 10.8 330 11.8
2011-12-12 08:15:08 51°16.254 2°53.039 333.9 10.9 330 12
2011-12-12 08:15:12 51°16.264 2°53.029 334.4 10.9 330 11.9
2011-12-12 08:15:18 51°16.28 2°53.015 334.7 11 330 12.2
2011-12-12 08:15:23 51°16.293 2°53.003 334.9 10.9 331 11.5
2011-12-12 08:15:28 51°16.306 2°52.992 335 10.6 332 11.3
2011-12-12 08:15:32 51°16.316 2°52.983 336.3 10.6 333 12.5
2011-12-12 08:15:38 51°16.332 2°52.971 336.9 10.7 333 12.6
2011-12-12 08:15:43 51°16.345 2°52.959 335.8 10.6 330 11.7
2011-12-12 08:15:48 51°16.358 2°52.948 334.8 10.4 331 11.4
2011-12-12 08:15:52 51°16.368 2°52.938 335.1 10.5 330 11.8
2011-12-12 08:15:58 51°16.383 2°52.924 335.1 10.6 330 11.8
2011-12-12 08:16:03 51°16.396 2°52.912 334.1 10.8 331 12.1
2011-12-12 08:16:08 51°16.409 2°52.9 334.2 10.9 330 12
2011-12-12 08:16:12 51°16.42 2°52.891 334 10.7 330 11.2
2011-12-12 08:16:18 51°16.436 2°52.877 334.1 10.8 331 11.9
2011-12-12 08:16:23 51°16.449 2°52.865 334.9 10.9 331 11.9
2011-12-12 08:16:28 51°16.462 2°52.853 334.3 10.9 331 11.7
2011-12-12 08:16:32 51°16.472 2°52.844 335 11 333 12.3
2011-12-12 08:16:38 51°16.489 2°52.832 336.5 10.9 335 11.6
2011-12-12 08:16:43 51°16.503 2°52.821 337.6 11 335 11.8
2011-12-12 08:16:48 51°16.517 2°52.812 338.4 10.8 337 11.1
2011-12-12 08:16:52 51°16.528 2°52.805 340 10.8 337 11.6
2011-12-12 08:16:58 51°16.545 2°52.794 341.3 10.8 337 11.4
2011-12-12 08:17:03 51°16.559 2°52.785 341.4 10.8 339 11.1
2011-12-12 08:17:08 51°16.573 2°52.777 342.5 10.9 341 12
2011-12-12 08:17:13 51°16.587 2°52.77 343.4 10.7 342 11
2011-12-12 08:17:18 51°16.601 2°52.763 344.1 10.6 343 11
2011-12-12 08:17:23 51°16.615 2°52.755 345.1 10.7 340 11.1
2011-12-12 08:17:28 51°16.629 2°52.748 344.8 10.7 342 10.6
2011-12-12 08:17:32 51°16.641 2°52.742 345 10.8 342 10.9
2011-12-12 08:17:38 51°16.658 2°52.733 345.7 10.7 342 10.5
2011-12-12 08:17:43 51°16.672 2°52.725 345.5 10.8 340 11
2011-12-12 08:17:48 51°16.686 2°52.717 344.3 10.7 341 10.4
2011-12-12 08:17:52 51°16.697 2°52.711 343.7 10.7 340 10.1
2011-12-12 08:17:58 51°16.714 2°52.701 344 10.8 340 10
2011-12-12 08:18:03 51°16.728 2°52.693 343.9 10.5 341 9.4
2011-12-12 08:18:08 51°16.742 2°52.686 344.4 10.5 341 10
2011-12-12 08:18:12 51°16.753 2°52.681 345.7 10.4 341 9.2
2011-12-12 08:18:18 51°16.769 2°52.671 344.9 10.4 340 9.4
2011-12-12 08:18:23 51°16.783 2°52.664 344.5 10.5 343 10.3
2011-12-12 08:18:28 51°16.797 2°52.656 344.1 10.5 341 9.5
2011-12-12 08:18:32 51°16.808 2°52.65 344.6 10.5 342 9.6
2011-12-12 08:18:38 51°16.825 2°52.641 344.7 10.5 341 9.7
2011-12-12 08:18:43 51°16.838 2°52.634 345 10.4 342 9.1
2011-12-12 08:18:48 51°16.852 2°52.627 345.2 10.4 340 9.3
2011-12-12 08:18:52 51°16.863 2°52.62 344.2 10.4 340 9.5
2011-12-12 08:18:58 51°16.879 2°52.611 343.9 10.5 339 9.2
2011-12-12 08:19:03 51°16.893 2°52.602 343.4 10.6 339 9.4
2011-12-12 08:19:08 51°16.907 2°52.594 343.2 10.7 338 9.6
2011-12-12 08:19:12 51°16.918 2°52.588 343.1 10.8 340 10.1
2011-12-12 08:19:18 51°16.935 2°52.578 342.7 10.4 340 8.8
2011-12-12 08:19:23 51°16.948 2°52.571 344.4 10.2 340 9
2011-12-12 08:19:28 51°16.961 2°52.562 344.5 10.4 338 9.6
2011-12-12 08:19:32 51°16.972 2°52.555 342.7 10.5 337 9.3
2011-12-12 08:19:38 51°16.988 2°52.544 341.6 10.4 338 8.8
2011-12-12 08:19:43 51°17.001 2°52.537 341.8 10.1 341 9.1
2011-12-12 08:19:48 51°17.015 2°52.53 344.2 10.3 342 9.4
2011-12-12 08:19:52 51°17.025 2°52.524 343.7 10.3 340 10
2011-12-12 08:19:58 51°17.042 2°52.514 342.7 10.2 339 9
2011-12-12 08:20:03 51°17.055 2°52.506 342.6 10 340 8.9
2011-12-12 08:20:08 51°17.068 2°52.499 343.5 10.1 341 9.7
2011-12-12 08:20:12 51°17.079 2°52.493 343.9 10.2 340 9.3
2011-12-12 08:20:17 51°17.092 2°52.484 343.7 10.3 338 9.4
2011-12-12 08:20:23 51°17.108 2°52.474 343.1 10.5 339 9.9
2011-12-12 08:20:28 51°17.121 2°52.466 343.2 10.5 340 9.5
2011-12-12 08:20:32 51°17.132 2°52.46 343.6 10.3 342 9.4
2011-12-12 08:20:37 51°17.146 2°52.453 345 10.5 342 10.2
2011-12-12 08:20:43 51°17.163 2°52.444 345.4 10.5 342 9.9
2011-12-12 08:20:48 51°17.176 2°52.437 344.9 10.2 341 9.3
2011-12-12 08:20:52 51°17.187 2°52.431 345.2 10.3 341 10.3
2011-12-12 08:20:58 51°17.203 2°52.422 345.1 10.3 341 10
2011-12-12 08:21:03 51°17.217 2°52.415 344.8 10.4 341 10.5
2011-12-12 08:21:08 51°17.231 2°52.407 343.9 10.3 341 9.9
2011-12-12 08:21:12 51°17.241 2°52.401 344.3 10.2 341 10
2011-12-12 08:21:18 51°17.257 2°52.392 344.9 10.4 341 10.3
2011-12-12 08:21:23 51°17.271 2°52.384 344.8 10.3 342 9.9
2011-12-12 08:21:28 51°17.284 2°52.377 345.3 10.4 342 10.5
2011-12-12 08:21:32 51°17.295 2°52.371 344.6 10.3 341 9.9
2011-12-12 08:21:38 51°17.311 2°52.362 344.8 10.1 340 9.7
2011-12-12 08:21:43 51°17.324 2°52.353 344.3 10.2 337 9.9
2011-12-12 08:21:48 51°17.337 2°52.344 342.7 10.4 335 10.5
2011-12-12 08:21:52 51°17.348 2°52.336 340.5 10.3 335 10.2
2011-12-12 08:21:58 51°17.363 2°52.324 339.7 10.6 334 10.4
2011-12-12 08:22:03 51°17.377 2°52.313 338.6 10.5 333 10.1
2011-12-12 08:22:08 51°17.39 2°52.303 337.5 10.5 332 9.9
2011-12-12 08:22:12 51°17.4 2°52.294 337.5 10.5 332 10
2011-12-12 08:22:18 51°17.415 2°52.28 336.8 10.7 330 10.5
2011-12-12 08:22:23 51°17.428 2°52.268 335.8 10.6 331 10.2
2011-12-12 08:22:28 51°17.441 2°52.257 335.5 10.6 330 11
2011-12-12 08:22:32 51°17.451 2°52.247 335.3 10.7 330 11.3
2011-12-12 08:22:38 51°17.466 2°52.233 334.9 10.5 330 10.8
2011-12-12 08:22:43 51°17.478 2°52.221 335 10.6 330 10.9
2011-12-12 08:22:48 51°17.491 2°52.21 335.3 10.4 330 10.3
2011-12-12 08:22:53 51°17.503 2°52.2 335.8 9.9 332 -999
2011-12-12 08:22:59 51°17.518 2°52.188 336.1 9.5 333 -999
2011-12-12 08:23:04 51°17.529 2°52.18 336.9 9.1 334 11.4
2011-12-12 08:23:10 51°17.544 2°52.17 338.7 9.3 336 -999
2011-12-12 08:23:16 51°17.557 2°52.158 339 9.3 332 -999
2011-12-12 08:23:20 51°17.566 2°52.151 338 9.3 334 11.8
2011-12-12 08:23:25 51°17.578 2°52.141 336.9 9.5 332 10.6
2011-12-12 08:23:31 51°17.593 2°52.129 337.7 9.8 332 11.2
2011-12-12 08:23:36 51°17.605 2°52.119 337.1 9.6 332 10.9
2011-12-12 08:23:40 51°17.614 2°52.111 336.5 9.6 333 12.1
2011-12-12 08:23:45 51°17.626 2°52.101 336.2 9.7 333 11.7
2011-12-12 08:23:50 51°17.639 2°52.091 337.6 9.7 332 11
2011-12-12 08:23:56 51°17.653 2°52.079 336.8 10.1 331 11.1
2011-12-12 08:24:00 51°17.663 2°52.07 336.9 10.1 331 10.7
2011-12-12 08:24:05 51°17.675 2°52.059 336.4 10 332 11.1
2011-12-12 08:24:10 51°17.687 2°52.048 336.6 10.1 331 10.8
2011-12-12 08:24:15 51°17.699 2°52.037 336.1 10.4 331 10.5
2011-12-12 08:24:20 51°17.712 2°52.026 334.9 10.1 331 10.9
2011-12-12 08:24:24 51°17.722 2°52.019 336.1 10 332 11.4
2011-12-12 08:24:29 51°17.734 2°52.008 336.4 10.2 330 10.5
2011-12-12 08:24:34 51°17.746 2°51.996 336.5 10.4 330 9.9
2011-12-12 08:24:39 51°17.759 2°51.984 335.4 10.5 331 9.8
2011-12-12 08:24:44 51°17.772 2°51.973 335.2 10.6 330 10.2
2011-12-12 08:24:49 51°17.785 2°51.962 335.8 10.6 331 10.8
2011-12-12 08:24:54 51°17.797 2°51.95 336.1 10.5 330 9.9
2011-12-12 08:24:59 51°17.81 2°51.939 335.7 10.7 330 9.9
2011-12-12 08:25:04 51°17.823 2°51.927 336.1 10.7 332 9.7
2011-12-12 08:25:08 51°17.834 2°51.917 335.9 10.9 330 10.1
2011-12-12 08:25:13 51°17.847 2°51.906 336.5 10.8 332 10.1
2011-12-12 08:25:18 51°17.86 2°51.895 336.3 10.8 332 10
2011-12-12 08:25:23 51°17.873 2°51.883 336.7 10.7 332 9.4
2011-12-12 08:25:28 51°17.886 2°51.872 337.3 10.6 331 10.4
2011-12-12 08:25:33 51°17.899 2°51.863 337.5 10.6 334 10.4
2011-12-12 08:25:38 51°17.912 2°51.851 337.3 10.6 331 10
2011-12-12 08:25:43 51°17.925 2°51.84 336.9 10.7 332 10.2
2011-12-12 08:25:48 51°17.938 2°51.828 336.8 10.7 330 10
2011-12-12 08:25:53 51°17.951 2°51.818 336.9 10.7 333 9.8
2011-12-12 08:25:58 51°17.964 2°51.806 337.3 10.6 330 9.9
2011-12-12 08:26:03 51°17.977 2°51.796 336.6 10.6 333 10.8
2011-12-12 08:26:08 51°17.991 2°51.784 337.2 10.6 333 10.4
2011-12-12 08:26:12 51°18.001 2°51.775 337.2 10.7 331 10.1
2011-12-12 08:26:18 51°18.017 2°51.762 337.4 10.8 332 10.7
2011-12-12 08:26:23 51°18.03 2°51.752 337 10.6 333 10.2
2011-12-12 08:26:28 51°18.043 2°51.741 336.9 10.6 332 10.2
2011-12-12 08:26:32 51°18.054 2°51.733 337.5 10.7 333 10.5
2011-12-12 08:26:38 51°18.069 2°51.72 338.2 10.8 332 10.8
2011-12-12 08:26:43 51°18.082 2°51.708 337.4 10.7 331 10.5
2011-12-12 08:26:48 51°18.096 2°51.697 337.1 10.8 332 10.6
2011-12-12 08:26:52 51°18.107 2°51.687 337.2 11 331 11
2011-12-12 08:26:58 51°18.123 2°51.674 337.2 11 333 10.9
2011-12-12 08:27:03 51°18.136 2°51.662 337.6 10.9 332 10.7
2011-12-12 08:27:08 51°18.15 2°51.651 337.9 10.9 333 11
2011-12-12 08:27:12 51°18.16 2°51.642 338.3 10.9 333 11
2011-12-12 08:27:18 51°18.177 2°51.629 338.6 10.9 333 10.9
2011-12-12 08:27:23 51°18.19 2°51.619 338.8 10.9 334 11.2
2011-12-12 08:27:28 51°18.204 2°51.607 338.7 11.1 331 11.7
2011-12-12 08:27:32 51°18.214 2°51.598 337.7 11 332 11.4
2011-12-12 08:27:38 51°18.23 2°51.584 336.8 10.8 331 11.3
2011-12-12 08:27:43 51°18.243 2°51.572 336.4 10.9 331 11.7
2011-12-12 08:27:48 51°18.256 2°51.56 336.4 10.9 330 11.5
2011-12-12 08:27:52 51°18.267 2°51.551 336.5 11 330 12
2011-12-12 08:27:58 51°18.283 2°51.536 336.3 11 330 11.6
2011-12-12 08:28:03 51°18.296 2°51.524 336.1 11.1 330 12
2011-12-12 08:28:08 51°18.31 2°51.511 335.9 11.1 330 11.9
2011-12-12 08:28:12 51°18.32 2°51.501 335.6 11.2 330 12.2
2011-12-12 08:28:18 51°18.336 2°51.486 335.4 11 330 11.9
2011-12-12 08:28:23 51°18.349 2°51.474 335.3 11 330 12.4
2011-12-12 08:28:28 51°18.362 2°51.463 335.4 10.9 332 13.1
2011-12-12 08:28:33 51°18.375 2°51.451 336.2 10.6 331 12.2
2011-12-12 08:28:38 51°18.388 2°51.441 336.7 10.3 333 11.8
2011-12-12 08:28:43 51°18.4 2°51.43 337.8 10.5 332 12.7
2011-12-12 08:28:48 51°18.414 2°51.419 338.6 10.7 332 12.5
2011-12-12 08:28:52 51°18.425 2°51.41 338.2 10.7 331 12.7
2011-12-12 08:28:57 51°18.438 2°51.399 337.4 10.9 333 13.1
2011-12-12 08:29:03 51°18.454 2°51.386 337.5 10.7 331 12.6
2011-12-12 08:29:08 51°18.467 2°51.375 337.7 10.6 333 13.7
2011-12-12 08:29:13 51°18.48 2°51.365 338.2 10.4 334 -999
2011-12-12 08:29:19 51°18.495 2°51.354 339.8 10.1 334 -999
2011-12-12 08:29:24 51°18.507 2°51.342 338.9 10.5 330 13.4
2011-12-12 08:29:29 51°18.52 2°51.331 337.6 10.5 331 13.3
2011-12-12 08:29:34 51°18.533 2°51.32 337.2 10.6 331 13.7
2011-12-12 08:29:39 51°18.546 2°51.308 337.5 10.7 330 13.5
2011-12-12 08:29:44 51°18.559 2°51.297 337.2 10.8 333 13.5
2011-12-12 08:29:49 51°18.572 2°51.285 337.8 10.9 331 14.1
2011-12-12 08:29:54 51°18.585 2°51.275 337.8 10 334 13.9
2011-12-12 08:30:00 51°18.6 2°51.266 338.3 9.8 338 -999
2011-12-12 08:30:05 51°18.612 2°51.256 339.9 9.6 333 -999
2011-12-12 08:30:11 51°18.626 2°51.244 337.6 9.6 332 -999
2011-12-12 08:30:16 51°18.638 2°51.233 337.5 9.9 330 -999
2011-12-12 08:30:21 51°18.65 2°51.223 337.1 9.7 333 13.5
2011-12-12 08:30:26 51°18.662 2°51.212 337.2 10 331 14.4
2011-12-12 08:30:31 51°18.674 2°51.201 337.1 10.4 332 14.1
2011-12-12 08:30:36 51°18.687 2°51.19 337.2 10.3 331 13.5
2011-12-12 08:30:40 51°18.697 2°51.182 337.6 10.2 333 14.5
2011-12-12 08:30:45 51°18.71 2°51.171 338.2 10.5 331 13.8
2011-12-12 08:30:50 51°18.723 2°51.161 337.4 10.5 332 14.3
2011-12-12 08:30:55 51°18.736 2°51.15 338 10.4 333 14
2011-12-12 08:31:00 51°18.749 2°51.139 338.2 10.5 332 14.5
2011-12-12 08:31:05 51°18.762 2°51.128 338.2 10.7 331 14.4
2011-12-12 08:31:10 51°18.775 2°51.116 338.4 10.7 331 14.3
2011-12-12 08:31:14 51°18.786 2°51.107 337.5 10.8 330 14.4
2011-12-12 08:31:20 51°18.801 2°51.092 336.2 10.9 330 14.2
2011-12-12 08:31:24 51°18.812 2°51.082 335.9 10.9 328 14.5
2011-12-12 08:31:29 51°18.825 2°51.071 335.6 10.7 331 13.7
2011-12-12 08:31:34 51°18.838 2°51.059 336.1 10.8 331 -999
2011-12-12 08:31:39 51°18.851 2°51.047 336.6 10.4 330 14.4
2011-12-12 08:31:44 51°18.863 2°51.036 336.8 10.5 331 14.4
2011-12-12 08:31:49 51°18.876 2°51.024 336.8 10.8 329 14.9
2011-12-12 08:31:54 51°18.889 2°51.012 336.3 10.9 331 15.5
2011-12-12 08:31:59 51°18.902 2°51.001 336.2 10.5 331 15.4
2011-12-12 08:32:04 51°18.915 2°50.991 337.1 10.4 333 -999
2011-12-12 08:32:09 51°18.928 2°50.98 338 10.6 332 14.7
2011-12-12 08:32:14 51°18.941 2°50.968 337.6 10.8 330 14.5
2011-12-12 08:32:19 51°18.954 2°50.957 336.9 10.4 332 15.8
2011-12-12 08:32:24 51°18.966 2°50.947 336.9 10 333 -999
2011-12-12 08:32:30 51°18.982 2°50.935 338.3 9.6 333 -999
2011-12-12 08:32:36 51°18.996 2°50.924 338.2 9.8 336 -999
2011-12-12 08:32:41 51°19.008 2°50.913 340.1 10 330 -999
2011-12-12 08:32:46 51°19.02 2°50.903 338.6 9.8 332 14.4
2011-12-12 08:32:51 51°19.032 2°50.893 337.4 10 331 -999
2011-12-12 08:32:56 51°19.044 2°50.882 337.7 10.2 332 15.7
2011-12-12 08:33:01 51°19.057 2°50.871 337.6 10.4 331 14.3
2011-12-12 08:33:06 51°19.069 2°50.86 337.6 10.3 331 14.8
2011-12-12 08:33:11 51°19.082 2°50.849 337.8 10.6 331 15.1
2011-12-12 08:33:16 51°19.095 2°50.837 337.4 10.6 331 14.1
2011-12-12 08:33:20 51°19.105 2°50.828 337.1 10.7 330 14.6
2011-12-12 08:33:25 51°19.119 2°50.816 337.5 10.8 329 14.6
2011-12-12 08:33:30 51°19.131 2°50.805 336.2 10.6 331 14.9
2011-12-12 08:33:35 51°19.144 2°50.792 335.8 10.8 330 13.7
2011-12-12 08:33:40 51°19.157 2°50.78 336.4 10.8 330 14.6
2011-12-12 08:33:44 51°19.168 2°50.771 336.9 10.9 330 14.2
2011-12-12 08:33:49 51°19.181 2°50.759 336.2 11.1 332 13.6
2011-12-12 08:33:54 51°19.194 2°50.747 336.9 11 331 14
2011-12-12 08:33:59 51°19.208 2°50.736 337.6 10.8 333 14.8
2011-12-12 08:34:04 51°19.221 2°50.724 337.6 10.9 330 13.9
2011-12-12 08:34:09 51°19.234 2°50.712 336.5 11 332 14.7
2011-12-12 08:34:14 51°19.248 2°50.701 337.1 10.8 331 15.2
2011-12-12 08:34:19 51°19.26 2°50.69 336 10.5 331 14.2
2011-12-12 08:34:24 51°19.273 2°50.679 336.6 10.5 330 13.2
2011-12-12 08:34:28 51°19.284 2°50.669 336.4 10.7 330 13.5
2011-12-12 08:34:33 51°19.297 2°50.657 336.6 10.9 330 13.6
2011-12-12 08:34:38 51°19.31 2°50.645 335.9 10.9 329 13.4
2011-12-12 08:34:43 51°19.323 2°50.633 335.9 10.9 330 12.9
2011-12-12 08:34:48 51°19.336 2°50.62 335.4 11.1 330 13.7
2011-12-12 08:34:52 51°19.347 2°50.612 335.4 10.8 333 12.2
2011-12-12 08:34:58 51°19.363 2°50.598 336.6 10.7 330 12.6
2011-12-12 08:35:03 51°19.376 2°50.587 337 10.9 332 13.2
2011-12-12 08:35:08 51°19.389 2°50.575 336.9 10.4 331 -999
2011-12-12 08:35:14 51°19.404 2°50.563 338.3 10.5 334 -999
2011-12-12 08:35:19 51°19.416 2°50.551 338.7 10.5 331 12.6
2011-12-12 08:35:24 51°19.429 2°50.541 338.2 10.6 332 12.7
2011-12-12 08:35:28 51°19.44 2°50.532 338.3 10.7 332 12.2
2011-12-12 08:35:33 51°19.453 2°50.521 338.2 10.7 332 11.7
2011-12-12 08:35:38 51°19.467 2°50.51 338.7 10.8 333 12.5
2011-12-12 08:35:43 51°19.481 2°50.499 338.9 10.9 332 11.9
2011-12-12 08:35:48 51°19.494 2°50.488 338.8 10.9 333 11.5
2011-12-12 08:35:52 51°19.505 2°50.479 338.7 11 332 11.9
2011-12-12 08:35:58 51°19.521 2°50.465 337.9 11.1 332 11.8
2011-12-12 08:36:03 51°19.535 2°50.453 337.7 11.2 331 11.3
2011-12-12 08:36:08 51°19.549 2°50.441 336.9 11.2 331 11.3
2011-12-12 08:36:12 51°19.56 2°50.431 336.9 11.1 331 11.6
2011-12-12 08:36:18 51°19.576 2°50.417 337 11.3 331 12.1
2011-12-12 08:36:23 51°19.59 2°50.404 336.1 11.4 329 12
2011-12-12 08:36:28 51°19.603 2°50.391 335.5 11.4 330 12.2
2011-12-12 08:36:32 51°19.614 2°50.381 335.2 11.4 329 12.3
2011-12-12 08:36:38 51°19.63 2°50.365 335.1 11.4 329 12.2
2011-12-12 08:36:43 51°19.644 2°50.352 334.8 11.3 329 12.1
2011-12-12 08:36:48 51°19.657 2°50.339 334.8 11.5 329 12.8
2011-12-12 08:36:52 51°19.668 2°50.329 335.2 11.5 330 12.8
2011-12-12 08:36:58 51°19.685 2°50.314 335.4 11.3 331 12.7
2011-12-12 08:37:03 51°19.699 2°50.302 337.5 11.4 332 13
2011-12-12 08:37:08 51°19.713 2°50.29 337.7 11.5 332 13.6
2011-12-12 08:37:12 51°19.724 2°50.281 338.1 11.3 333 12.9
2011-12-12 08:37:18 51°19.741 2°50.268 339.3 11.4 333 13.5
2011-12-12 08:37:23 51°19.755 2°50.256 339.8 11.3 334 13.3
2011-12-12 08:37:28 51°19.77 2°50.247 340.3 11.3 336 13.4
2011-12-12 08:37:32 51°19.781 2°50.237 341.1 11.4 334 13.9
2011-12-12 08:37:38 51°19.798 2°50.225 341.4 11.3 335 13.7
2011-12-12 08:37:43 51°19.812 2°50.214 340.8 11.4 335 14
2011-12-12 08:37:48 51°19.827 2°50.203 340.7 11.3 335 13.9
2011-12-12 08:37:52 51°19.838 2°50.195 340.5 11.1 336 13.7
2011-12-12 08:37:58 51°19.854 2°50.183 341.8 11.1 336 14.5
2011-12-12 08:38:03 51°19.868 2°50.172 341.7 11.2 335 14.3
2011-12-12 08:38:08 51°19.883 2°50.162 341.8 11.3 335 14.3
2011-12-12 08:38:12 51°19.894 2°50.154 342.1 11.2 336 14.1
2011-12-12 08:38:18 51°19.912 2°50.143 342.2 11.1 337 14.1
2011-12-12 08:38:23 51°19.926 2°50.133 343.1 11.2 336 15.4
2011-12-12 08:38:28 51°19.94 2°50.123 341.8 11.3 336 15.5
2011-12-12 08:38:32 51°19.951 2°50.115 341.3 11.1 336 15.1
2011-12-12 08:38:38 51°19.968 2°50.102 341.5 11.2 335 15.4
2011-12-12 08:38:43 51°19.983 2°50.092 341.2 11.2 337 16.2
2011-12-12 08:38:48 51°19.996 2°50.083 341.5 10.6 338 -999
2011-12-12 08:38:53 51°20.009 2°50.074 342.3 10.6 336 -999
2011-12-12 08:38:58 51°20.023 2°50.064 341.4 10.7 334 16.2
2011-12-12 08:39:03 51°20.036 2°50.053 339.8 10.9 333 15.7
2011-12-12 08:39:08 51°20.05 2°50.042 339.8 10.9 334 16.2
2011-12-12 08:39:13 51°20.063 2°50.031 339.5 10.8 332 15.9
2011-12-12 08:39:18 51°20.076 2°50.021 339.1 10.9 334 17.3
2011-12-12 08:39:23 51°20.09 2°50.011 339.7 10.4 335 16.7
2011-12-12 08:39:28 51°20.102 2°50.001 340.3 10 335 18
2011-12-12 08:39:33 51°20.115 2°49.991 341.2 10.3 333 16.3
2011-12-12 08:39:38 51°20.128 2°49.981 340.1 10.6 334 17.6
2011-12-12 08:39:43 51°20.141 2°49.97 339.5 10.8 332 17.8
2011-12-12 08:39:48 51°20.155 2°49.958 339 11.1 333 18
2011-12-12 08:39:52 51°20.166 2°49.95 339.3 10.8 335 17.2
2011-12-12 08:39:58 51°20.181 2°49.937 339.7 10.9 333 17.8
2011-12-12 08:40:03 51°20.195 2°49.926 340.8 11 333 18.2
2011-12-12 08:40:08 51°20.209 2°49.914 339.8 11 333 18.5
2011-12-12 08:40:12 51°20.22 2°49.905 339.4 11.2 333 19.4
2011-12-12 08:40:19 51°20.239 2°49.891 338.7 10.4 335 4.8
2011-12-12 08:40:24 51°20.251 2°49.882 340.5 10 335 -999
2011-12-12 08:40:30 51°20.267 2°49.871 342.2 10.4 334 -999
2011-12-12 08:40:35 51°20.28 2°49.86 340.5 10.6 332 20
2011-12-12 08:40:40 51°20.293 2°49.849 339.9 10.7 333 20
2011-12-12 08:40:44 51°20.304 2°49.84 340.3 10.6 333 20.2
2011-12-12 08:40:49 51°20.317 2°49.83 340.2 10.8 334 19.6
2011-12-12 08:40:54 51°20.33 2°49.819 340.1 10.7 333 20.4
2011-12-12 08:40:59 51°20.343 2°49.809 340.4 10.4 333 21.2
2011-12-12 08:41:04 51°20.357 2°49.799 341.1 10.6 334 20.7
2011-12-12 08:41:09 51°20.37 2°49.788 340.8 10.6 333 20.3
2011-12-12 08:41:14 51°20.383 2°49.778 340.8 10.6 334 20.4
2011-12-12 08:41:19 51°20.397 2°49.767 340.6 10.8 334 20.9
2011-12-12 08:41:24 51°20.41 2°49.757 340.4 10.9 334 21.2
2011-12-12 08:41:28 51°20.421 2°49.748 341.9 10.9 332 21.5
2011-12-12 08:41:33 51°20.434 2°49.737 340.5 10.9 334 21.8
2011-12-12 08:41:38 51°20.448 2°49.726 340.6 11.2 334 22.5
2011-12-12 08:41:43 51°20.462 2°49.714 341.3 11.2 332 22.1
2011-12-12 08:41:48 51°20.476 2°49.703 339.8 11.2 332 21.8
2011-12-12 08:41:53 51°20.489 2°49.692 339.8 10.9 334 21.3
2011-12-12 08:41:58 51°20.503 2°49.682 340.8 10.9 335 21.9
2011-12-12 08:42:03 51°20.517 2°49.67 341 11 333 22
2011-12-12 08:42:08 51°20.53 2°49.659 340 11 333 23
2011-12-12 08:42:12 51°20.541 2°49.65 340 10.9 333 23.6
2011-12-12 08:42:18 51°20.558 2°49.637 340 11.1 333 22.7
2011-12-12 08:42:23 51°20.571 2°49.626 340.2 11.1 334 23.3
2011-12-12 08:42:28 51°20.585 2°49.615 340.3 11.1 335 23.7
2011-12-12 08:42:32 51°20.596 2°49.606 340.8 11.1 334 22.9
2011-12-12 08:42:38 51°20.612 2°49.593 340.5 10.9 332 22.6
2011-12-12 08:42:43 51°20.626 2°49.582 339.8 10.9 334 23
2011-12-12 08:42:48 51°20.64 2°49.571 339.9 11 334 23.4
2011-12-12 08:42:52 51°20.65 2°49.562 341 11.2 331 23.7
2011-12-12 08:42:58 51°20.667 2°49.547 339 11.1 332 22.8
2011-12-12 08:43:03 51°20.68 2°49.535 339.7 11.3 331 22.9
2011-12-12 08:43:08 51°20.694 2°49.524 339.3 11 333 22.5
2011-12-12 08:43:13 51°20.708 2°49.514 340 10.9 335 -999
2011-12-12 08:43:19 51°20.723 2°49.502 342.3 10.5 334 -999
2011-12-12 08:43:24 51°20.736 2°49.491 341.5 10.7 333 23.2
2011-12-12 08:43:28 51°20.747 2°49.482 340.7 10.9 332 23.5
2011-12-12 08:43:33 51°20.761 2°49.472 340.2 10.8 334 23.8
2011-12-12 08:43:38 51°20.774 2°49.461 340.2 10.7 333 23
2011-12-12 08:43:43 51°20.787 2°49.45 340.5 10.6 334 23.1
2011-12-12 08:43:48 51°20.8 2°49.439 340.8 10.8 331 22.6
2011-12-12 08:43:53 51°20.814 2°49.428 340.3 10.9 332 22.6
2011-12-12 08:43:58 51°20.827 2°49.417 340.2 11 333 23.2
2011-12-12 08:44:03 51°20.841 2°49.406 340.5 11.1 334 23.4
2011-12-12 08:44:08 51°20.855 2°49.395 341.1 11.2 334 23.7
2011-12-12 08:44:12 51°20.866 2°49.386 340.8 11.1 334 22.6
2011-12-12 08:44:18 51°20.883 2°49.372 340.6 11.2 334 23.6
2011-12-12 08:44:23 51°20.897 2°49.361 340.9 11.2 332 22.7
2011-12-12 08:44:28 51°20.91 2°49.349 340.5 11.3 332 22.7
2011-12-12 08:44:32 51°20.922 2°49.34 339.9 11.3 333 22.3
2011-12-12 08:44:38 51°20.938 2°49.328 340.6 11.1 333 23.2
2011-12-12 08:44:43 51°20.952 2°49.317 341.1 11.2 335 23.3
2011-12-12 08:44:48 51°20.966 2°49.306 341.1 11.1 334 22.4
2011-12-12 08:44:52 51°20.978 2°49.297 341.3 11.3 333 22.5
2011-12-12 08:44:58 51°20.994 2°49.284 341.1 11 334 21.7
2011-12-12 08:45:03 51°21.008 2°49.273 340.4 11 333 22.9
2011-12-12 08:45:08 51°21.021 2°49.263 340.6 10.9 335 23.3
2011-12-12 08:45:13 51°21.035 2°49.253 341.5 10.8 335 22.9
2011-12-12 08:45:18 51°21.048 2°49.242 341.7 11 333 22.6
2011-12-12 08:45:23 51°21.062 2°49.231 340.1 10.8 334 22.1
2011-12-12 08:45:28 51°21.075 2°49.221 340.7 10.9 335 22.1
2011-12-12 08:45:32 51°21.086 2°49.212 340.9 11 334 22.4
2011-12-12 08:45:38 51°21.103 2°49.199 341.4 11.1 333 21.9
2011-12-12 08:45:43 51°21.117 2°49.188 340.7 11.3 333 22.4
2011-12-12 08:45:48 51°21.131 2°49.177 340.4 11 333 21.5
2011-12-12 08:45:52 51°21.141 2°49.168 339.4 11.1 333 22.5
2011-12-12 08:45:58 51°21.158 2°49.154 340.4 11.1 333 22
2011-12-12 08:46:03 51°21.171 2°49.144 340.1 10.9 335 21.7
2011-12-12 08:46:08 51°21.186 2°49.134 340.6 11.4 335 22.9
2011-12-12 08:46:12 51°21.197 2°49.125 340.7 11.1 334 21.9
2011-12-12 08:46:18 51°21.214 2°49.112 340.7 11.1 333 21.5
2011-12-12 08:46:23 51°21.227 2°49.1 339.8 11.1 333 21.6
2011-12-12 08:46:28 51°21.241 2°49.088 339.7 11.3 331 21.8
2011-12-12 08:46:32 51°21.252 2°49.079 339 11.4 332 22
2011-12-12 08:46:38 51°21.269 2°49.065 338.7 11.5 333 21.8
2011-12-12 08:46:43 51°21.283 2°49.053 339 11.3 332 21.2
2011-12-12 08:46:48 51°21.296 2°49.042 339.1 11.1 334 21.9
2011-12-12 08:46:52 51°21.307 2°49.033 340 11.2 334 22.1
2011-12-12 08:46:58 51°21.324 2°49.02 340.6 11 334 21
2011-12-12 08:47:03 51°21.338 2°49.011 340.9 10.5 335 -999
2011-12-12 08:47:08 51°21.351 2°49.001 341.4 10.6 334 -999
2011-12-12 08:47:13 51°21.364 2°48.992 342.8 10.5 336 20.4
2011-12-12 08:47:18 51°21.377 2°48.981 341.3 10.7 333 -999
2011-12-12 08:47:23 51°21.391 2°48.971 341.2 10.6 336 20.4
2011-12-12 08:47:28 51°21.404 2°48.961 341.6 10.8 334 20.1
2011-12-12 08:47:32 51°21.415 2°48.953 341.9 10.9 336 20
2011-12-12 08:47:38 51°21.432 2°48.941 341.6 11 335 20.4
2011-12-12 08:47:43 51°21.446 2°48.931 342.2 11 336 21.6
2011-12-12 08:47:48 51°21.46 2°48.921 342.3 10.9 335 21.1
2011-12-12 08:47:52 51°21.471 2°48.912 341.4 10.8 336 21.4
2011-12-12 08:47:58 51°21.487 2°48.901 341.9 11 336 22.6
2011-12-12 08:48:03 51°21.5 2°48.89 341.4 10.8 333 22
2011-12-12 08:48:08 51°21.514 2°48.88 339.8 10.8 335 22.5
2011-12-12 08:48:12 51°21.524 2°48.872 339.8 10.9 333 23
2011-12-12 08:48:18 51°21.541 2°48.859 338.8 10.6 334 23.3
2011-12-12 08:48:23 51°21.554 2°48.849 339.8 11 335 22.2
2011-12-12 08:48:28 51°21.567 2°48.837 339.3 10.9 333 22.5
2011-12-12 08:48:33 51°21.58 2°48.826 339.8 11 332 23.3
2011-12-12 08:48:38 51°21.594 2°48.814 339 11.3 332 23.7
2011-12-12 08:48:43 51°21.608 2°48.802 338.3 11.2 332 22.9
2011-12-12 08:48:48 51°21.621 2°48.791 337.6 11.2 332 22.9
2011-12-12 08:48:53 51°21.635 2°48.779 338.2 11.2 332 23.1
2011-12-12 08:48:58 51°21.648 2°48.766 338.2 11.4 331 23.3
2011-12-12 08:49:03 51°21.663 2°48.755 338.3 11.5 332 23.5
2011-12-12 08:49:08 51°21.677 2°48.742 337.6 11.6 331 23.4
2011-12-12 08:49:12 51°21.688 2°48.732 336.9 11.3 332 23.3
2011-12-12 08:49:18 51°21.705 2°48.719 338.4 11.2 334 24.3
2011-12-12 08:49:24 51°21.721 2°48.708 339.3 10.8 336 -999
2011-12-12 08:49:28 51°21.732 2°48.699 341.7 11 333 23.2
2011-12-12 08:49:33 51°21.746 2°48.687 340.1 11 333 23.5
2011-12-12 08:49:38 51°21.759 2°48.677 339.5 11.1 336 24.5
2011-12-12 08:49:44 51°21.775 2°48.665 339.3 10.6 336 -999
2011-12-12 08:49:49 51°21.789 2°48.655 341.2 10.8 334 -999
2011-12-12 08:49:54 51°21.803 2°48.644 340.6 10.9 335 23.7
2011-12-12 08:49:59 51°21.817 2°48.634 340.6 10.8 336 23.9
2011-12-12 08:50:04 51°21.83 2°48.624 341.2 10.7 336 22.7
2011-12-12 08:50:09 51°21.844 2°48.615 341.3 10.8 337 -999
2011-12-12 08:50:15 51°21.86 2°48.605 342.7 10.3 336 22.9
2011-12-12 08:50:20 51°21.873 2°48.596 341.9 10.5 336 -999
2011-12-12 08:50:24 51°21.884 2°48.588 342.6 10.6 335 23
2011-12-12 08:50:29 51°21.897 2°48.579 341.9 10.6 337 24.4
2011-12-12 08:50:35 51°21.914 2°48.567 341.7 10.8 335 23.2
2011-12-12 08:50:40 51°21.927 2°48.557 341.1 11.1 336 23.7
2011-12-12 08:50:44 51°21.939 2°48.549 341.2 11.2 336 23.7
2011-12-12 08:50:49 51°21.953 2°48.539 341.6 11.3 336 23.6
2011-12-12 08:50:54 51°21.967 2°48.528 341.4 11.3 335 23.7
2011-12-12 08:50:59 51°21.981 2°48.517 340.7 11.4 335 24.4
2011-12-12 08:51:04 51°21.996 2°48.506 340.1 11.5 334 24.6
2011-12-12 08:51:08 51°22.007 2°48.498 339.8 11.5 336 24.4
2011-12-12 08:51:13 51°22.021 2°48.487 339.8 11.2 334 23.4
2011-12-12 08:51:18 51°22.035 2°48.476 339.7 11.2 335 23.9
2011-12-12 08:51:23 51°22.049 2°48.465 339.9 11.4 336 23.7
2011-12-12 08:51:28 51°22.064 2°48.455 339.8 11.3 334 24.7
2011-12-12 08:51:32 51°22.075 2°48.447 339.8 11.2 335 24.2
2011-12-12 08:51:37 51°22.089 2°48.435 339.1 11.2 333 24.2
2011-12-12 08:51:43 51°22.105 2°48.422 338.4 11.1 334 23.6
2011-12-12 08:51:48 51°22.12 2°48.411 339.1 11.1 335 24.3
2011-12-12 08:51:52 51°22.131 2°48.403 339 11 335 23.2
2011-12-12 08:51:58 51°22.147 2°48.392 340.5 10.9 337 -999
2011-12-12 08:52:03 51°22.161 2°48.383 341.3 10.9 336 24.6
2011-12-12 08:52:08 51°22.175 2°48.373 340.8 10.9 337 23.9
2011-12-12 08:52:12 51°22.186 2°48.365 341.3 11 336 23.6
2011-12-12 08:52:18 51°22.202 2°48.353 341.6 11.1 335 23.6
2011-12-12 08:52:23 51°22.216 2°48.342 340.6 11.3 333 23.8
2011-12-12 08:52:28 51°22.231 2°48.331 339.8 11.4 334 23
2011-12-12 08:52:32 51°22.242 2°48.322 339.1 11.3 332 21.7
2011-12-12 08:52:38 51°22.259 2°48.309 339.5 11.2 334 21.6
2011-12-12 08:52:43 51°22.273 2°48.297 339.8 11.3 333 20.9
2011-12-12 08:52:48 51°22.288 2°48.286 339.7 11.2 335 21
2011-12-12 08:52:52 51°22.299 2°48.277 340.4 11.4 333 21.1
2011-12-12 08:52:58 51°22.316 2°48.263 339.8 11.4 333 20.9
2011-12-12 08:53:03 51°22.33 2°48.252 339 11.3 333 20.5
2011-12-12 08:53:08 51°22.344 2°48.241 338.7 11.3 333 20.1
2011-12-12 08:53:12 51°22.355 2°48.232 339 11.3 334 19.3
2011-12-12 08:53:18 51°22.372 2°48.219 339 11.2 334 19.2
2011-12-12 08:53:24 51°22.388 2°48.208 338.5 9.9 337 -999
2011-12-12 08:53:29 51°22.4 2°48.2 340.9 9.3 337 -999
2011-12-12 08:53:35 51°22.414 2°48.189 341.3 9.7 335 -999
2011-12-12 08:53:40 51°22.426 2°48.179 340.8 10 332 -999
2011-12-12 08:53:46 51°22.441 2°48.167 339 10.2 333 17.1
2011-12-12 08:53:51 51°22.454 2°48.156 339 10.5 333 18.4
2011-12-12 08:53:56 51°22.468 2°48.146 339.7 10.6 335 17.8
2011-12-12 08:54:00 51°22.479 2°48.138 340.6 10.5 335 18.1
2011-12-12 08:54:05 51°22.492 2°48.128 340.4 10.6 335 17.5
2011-12-12 08:54:10 51°22.506 2°48.119 340.5 10.9 336 17.3
2011-12-12 08:54:15 51°22.519 2°48.108 341.5 10.9 337 16.9
2011-12-12 08:54:20 51°22.533 2°48.098 342 11.1 334 17
2011-12-12 08:54:24 51°22.544 2°48.089 341.4 11.1 336 17
2011-12-12 08:54:29 51°22.558 2°48.079 341.2 11.1 336 14.9
2011-12-12 08:54:34 51°22.572 2°48.069 341.9 11.1 333 14.9
2011-12-12 08:54:39 51°22.586 2°48.058 341.2 10.9 334 18.1
2011-12-12 08:54:44 51°22.599 2°48.048 340.4 10.9 335 17.5
2011-12-12 08:54:49 51°22.613 2°48.038 340.4 10.9 336 18.2
2011-12-12 08:54:54 51°22.627 2°48.028 341.8 10.8 335 16.9
2011-12-12 08:54:59 51°22.64 2°48.017 340.6 10.7 333 14.6
2011-12-12 08:55:04 51°22.654 2°48.007 340 10.6 333 16.9
2011-12-12 08:55:08 51°22.665 2°47.999 339.9 10.7 332 17.6
2011-12-12 08:55:13 51°22.678 2°47.987 339.7 10.7 333 18.1
2011-12-12 08:55:18 51°22.691 2°47.976 339 10.9 332 18.7
2011-12-12 08:55:24 51°22.707 2°47.964 339.1 10.2 334 -999
2011-12-12 08:55:29 51°22.719 2°47.954 340.5 10.2 334 -999
2011-12-12 08:55:34 51°22.733 2°47.943 340.5 10.6 333 17.6
2011-12-12 08:55:39 51°22.746 2°47.933 339.7 10.7 334 17.8
2011-12-12 08:55:44 51°22.759 2°47.922 340.3 10.9 333 18
2011-12-12 08:55:48 51°22.77 2°47.913 339.8 11.1 333 17.2
2011-12-12 08:55:53 51°22.784 2°47.901 339.8 11 331 16
2011-12-12 08:55:59 51°22.8 2°47.887 337.7 11 334 14.9
2011-12-12 08:56:04 51°22.813 2°47.875 339 11.2 329 16.8
2011-12-12 08:56:08 51°22.824 2°47.866 338.5 11.1 333 17.8
2011-12-12 08:56:13 51°22.838 2°47.854 339.5 11.1 332 18.2
2011-12-12 08:56:18 51°22.852 2°47.843 339.9 11.2 335 19.2
2011-12-12 08:56:23 51°22.866 2°47.833 340.4 11.2 334 19.6
2011-12-12 08:56:28 51°22.88 2°47.822 340.6 11.1 335 18.1
2011-12-12 08:56:32 51°22.891 2°47.813 341.2 11.2 334 17.3
2011-12-12 08:56:38 51°22.907 2°47.8 340.5 11.3 333 17.5
2011-12-12 08:56:43 51°22.921 2°47.788 340.5 11.4 332 17.7
2011-12-12 08:56:48 51°22.935 2°47.777 340.5 11.2 333 18
2011-12-12 08:56:52 51°22.947 2°47.769 340.7 11.1 335 18.6
2011-12-12 08:56:58 51°22.963 2°47.755 340.7 11.3 332 18.8
2011-12-12 08:57:03 51°22.978 2°47.745 340.6 11.3 336 17.8
2011-12-12 08:57:08 51°22.992 2°47.734 341.1 11.3 335 17
2011-12-12 08:57:12 51°23.004 2°47.726 342 11.4 336 17.7
2011-12-12 08:57:18 51°23.021 2°47.714 343 11.4 337 18.4
2011-12-12 08:57:23 51°23.036 2°47.703 343.3 11.3 336 17.1
2011-12-12 08:57:28 51°23.05 2°47.694 343.8 11.3 338 17.3
2011-12-12 08:57:32 51°23.062 2°47.686 344.2 11.4 337 19.4
2011-12-12 08:57:38 51°23.079 2°47.676 344.1 11.4 340 20.5
2011-12-12 08:57:43 51°23.094 2°47.666 344.6 11.3 338 20.3
2011-12-12 08:57:48 51°23.108 2°47.658 344.6 11.2 340 20.9
2011-12-12 08:57:53 51°23.123 2°47.649 344.8 11.3 340 21.6
2011-12-12 08:57:58 51°23.137 2°47.641 344.8 10.9 341 20.6
2011-12-12 08:58:03 51°23.151 2°47.632 345.6 10.9 338 21.2
2011-12-12 08:58:08 51°23.166 2°47.624 345.4 11 339 21.4
2011-12-12 08:58:12 51°23.177 2°47.616 344.4 11.1 336 20.5
2011-12-12 08:58:18 51°23.193 2°47.606 344.1 10.7 340 21.3
2011-12-12 08:58:23 51°23.207 2°47.597 344.2 10.8 338 22.4
2011-12-12 08:58:28 51°23.221 2°47.588 344 10.8 339 21.5
2011-12-12 08:58:32 51°23.232 2°47.581 344.9 10.9 336 21.1
2011-12-12 08:58:38 51°23.249 2°47.57 344.1 10.8 338 20.6
2011-12-12 08:58:43 51°23.263 2°47.561 344.1 11 337 21.7
2011-12-12 08:58:48 51°23.277 2°47.551 343.9 11 335 21.5
2011-12-12 08:58:52 51°23.289 2°47.543 342.2 11.1 337 22
2011-12-12 08:58:58 51°23.305 2°47.531 343 11.2 336 22.5
2011-12-12 08:59:03 51°23.32 2°47.521 342.5 11.2 337 21.9
2011-12-12 08:59:08 51°23.334 2°47.512 342.8 10.9 338 20.8
2011-12-12 08:59:13 51°23.348 2°47.504 344.2 10.8 338 -999
2011-12-12 08:59:18 51°23.362 2°47.495 345.7 10.9 338 21.2
2011-12-12 08:59:23 51°23.376 2°47.484 343.8 11.3 333 20.4
2011-12-12 08:59:28 51°23.39 2°47.475 342.1 11 338 20
2011-12-12 08:59:33 51°23.404 2°47.465 342.3 10.9 338 20.3
2011-12-12 08:59:38 51°23.419 2°47.456 344 11.1 339 20.8
2011-12-12 08:59:43 51°23.433 2°47.446 344.4 11.2 336 21.2
2011-12-12 08:59:48 51°23.447 2°47.437 344 11.3 338 22
2011-12-12 08:59:52 51°23.459 2°47.429 343.6 11.2 337 21.2
2011-12-12 08:59:58 51°23.476 2°47.418 344.1 11.2 337 22.1
2011-12-12 09:00:03 51°23.491 2°47.408 344.2 11.3 338 22.1
2011-12-12 09:00:08 51°23.505 2°47.398 344.1 11.3 337 21.8
2011-12-12 09:00:12 51°23.517 2°47.39 343.4 11.4 336 22.5
2011-12-12 09:00:18 51°23.534 2°47.379 342.7 11.4 337 22.9
2011-12-12 09:00:23 51°23.549 2°47.369 342.3 11.3 337 21.9
2011-12-12 09:00:28 51°23.563 2°47.358 342.7 11.4 334 19.9
2011-12-12 09:00:32 51°23.574 2°47.349 341.4 11.4 334 19.1
2011-12-12 09:00:38 51°23.592 2°47.337 341.1 11.3 335 16.6
2011-12-12 09:00:43 51°23.606 2°47.326 341.5 11.2 335 17.4
2011-12-12 09:00:48 51°23.62 2°47.316 342.3 11.2 335 19.2
2011-12-12 09:00:52 51°23.631 2°47.307 343 11.4 335 19.7
2011-12-12 09:00:58 51°23.649 2°47.295 343.2 11.5 334 20.5
2011-12-12 09:01:03 51°23.663 2°47.285 342.7 11.4 335 21.2
2011-12-12 09:01:08 51°23.677 2°47.274 341.9 11.1 337 21.6
2011-12-12 09:01:13 51°23.691 2°47.265 342.7 11.1 338 -999
2011-12-12 09:01:18 51°23.706 2°47.256 343.3 11 337 20.6
2011-12-12 09:01:23 51°23.719 2°47.245 343 11.1 336 21.3
2011-12-12 09:01:28 51°23.734 2°47.236 342.9 10.9 338 21.5
2011-12-12 09:01:32 51°23.745 2°47.228 342.7 11 338 23.5
2011-12-12 09:01:38 51°23.762 2°47.218 344.8 11.1 339 24.8
2011-12-12 09:01:43 51°23.776 2°47.208 343.2 11.1 339 25.1
2011-12-12 09:01:48 51°23.79 2°47.2 343.7 10.9 340 24.9
2011-12-12 09:01:52 51°23.802 2°47.192 344.3 10.5 336 23.1
2011-12-12 09:01:58 51°23.817 2°47.182 343.2 10.5 339 24
2011-12-12 09:02:03 51°23.831 2°47.172 344.3 10.8 335 24.2
2011-12-12 09:02:08 51°23.845 2°47.164 343.2 10.9 339 24.6
2011-12-12 09:02:12 51°23.856 2°47.156 342.7 10.8 337 24.8
2011-12-12 09:02:18 51°23.873 2°47.145 343.6 11.1 336 24.4
2011-12-12 09:02:23 51°23.887 2°47.136 342.9 11 338 24.3
2011-12-12 09:02:28 51°23.901 2°47.126 343.1 11.1 337 24.8
2011-12-12 09:02:32 51°23.913 2°47.119 343.8 11.2 337 24.7
2011-12-12 09:02:38 51°23.93 2°47.107 342.2 11.3 337 25.2
2011-12-12 09:02:43 51°23.945 2°47.097 342.5 11.3 338 24.8
2011-12-12 09:02:48 51°23.959 2°47.087 343.4 11.4 335 25
2011-12-12 09:02:52 51°23.97 2°47.08 342.7 11.3 338 26.6
2011-12-12 09:02:58 51°23.989 2°47.07 342.8 11 340 26.4
2011-12-12 09:03:03 51°24.002 2°47.06 343.8 10.8 337 25.8
2011-12-12 09:03:08 51°24.017 2°47.052 343.8 10.9 338 27.7
2011-12-12 09:03:12 51°24.027 2°47.043 342.8 10.8 339 26.7
2011-12-12 09:03:18 51°24.044 2°47.033 344 11 338 27.6
2011-12-12 09:03:23 51°24.058 2°47.023 343.8 11.1 337 28
2011-12-12 09:03:28 51°24.072 2°47.013 342.9 11 336 27.1
2011-12-12 09:03:32 51°24.083 2°47.004 342.6 11.1 336 27.7
2011-12-12 09:03:38 51°24.1 2°46.993 342.5 11.2 336 29.1
2011-12-12 09:03:43 51°24.114 2°46.984 342.6 10.8 338 28.2
2011-12-12 09:03:48 51°24.128 2°46.976 344.1 10.7 340 27.7
2011-12-12 09:03:52 51°24.14 2°46.969 345.6 10.9 335 28.6
2011-12-12 09:03:58 51°24.156 2°46.956 342.3 10.9 337 28.8
2011-12-12 09:04:03 51°24.17 2°46.946 342.1 11 335 27.6
2011-12-12 09:04:08 51°24.184 2°46.936 342.5 11 335 26.8
2011-12-12 09:04:12 51°24.195 2°46.928 342.1 11.1 336 28.1
2011-12-12 09:04:18 51°24.212 2°46.916 342.7 11.3 336 28.8
2011-12-12 09:04:23 51°24.226 2°46.906 343.1 11.1 337 28.3
2011-12-12 09:04:28 51°24.24 2°46.897 342.6 11 339 28.2
2011-12-12 09:04:33 51°24.255 2°46.888 345 11.1 338 28.9
2011-12-12 09:04:38 51°24.269 2°46.877 344.1 11.2 336 28.6
2011-12-12 09:04:43 51°24.283 2°46.867 343 11.3 336 28.1
2011-12-12 09:04:48 51°24.297 2°46.857 342 11.1 334 27.9
2011-12-12 09:04:52 51°24.308 2°46.849 342 11.1 335 28.5
2011-12-12 09:04:58 51°24.325 2°46.837 342.1 11.1 336 30.1
2011-12-12 09:05:03 51°24.339 2°46.826 343 11.2 335 30.8
2011-12-12 09:05:08 51°24.354 2°46.817 342.7 11.2 339 31.5
2011-12-12 09:05:12 51°24.365 2°46.808 342.8 11.2 335 31.1
2011-12-12 09:05:18 51°24.382 2°46.797 343.4 11.2 339 31.7
2011-12-12 09:05:23 51°24.396 2°46.787 344.5 11.2 338 31.2
2011-12-12 09:05:28 51°24.411 2°46.778 344.6 11.2 337 31.1
2011-12-12 09:05:32 51°24.423 2°46.77 344.3 11.2 335 31.1
2011-12-12 09:05:38 51°24.44 2°46.76 343.8 11 341 30.6
2011-12-12 09:05:43 51°24.454 2°46.75 345.3 11.2 336 31
2011-12-12 09:05:48 51°24.468 2°46.74 344.1 11.2 338 30.9
2011-12-12 09:05:52 51°24.48 2°46.733 343.9 11.3 336 29.5
2011-12-12 09:05:58 51°24.497 2°46.721 343.8 11.2 338 29
2011-12-12 09:06:03 51°24.511 2°46.711 343.4 11.2 336 29.5
2011-12-12 09:06:08 51°24.525 2°46.702 343.7 11.1 338 28.9
2011-12-12 09:06:12 51°24.537 2°46.694 343.4 11 338 29.7
2011-12-12 09:06:18 51°24.554 2°46.685 344.1 11 341 30.7
2011-12-12 09:06:23 51°24.568 2°46.676 344.1 10.8 337 30
2011-12-12 09:06:28 51°24.582 2°46.667 344.3 10.9 337 30.3
2011-12-12 09:06:33 51°24.596 2°46.657 342.9 10.8 336 29.6
2011-12-12 09:06:38 51°24.609 2°46.646 342.5 10.9 336 30.2
2011-12-12 09:06:43 51°24.623 2°46.637 342.6 10.9 337 29.2
2011-12-12 09:06:48 51°24.637 2°46.627 343 10.9 336 28.6
2011-12-12 09:06:52 51°24.648 2°46.62 343.4 11 337 27.9
2011-12-12 09:06:58 51°24.665 2°46.608 343.4 11.1 336 26.2
2011-12-12 09:07:03 51°24.679 2°46.598 343.3 11.2 338 26.6
2011-12-12 09:07:08 51°24.694 2°46.589 343.7 11.4 337 28.1
2011-12-12 09:07:12 51°24.705 2°46.582 342.7 11.1 339 27.6
2011-12-12 09:07:18 51°24.723 2°46.572 344.1 10.8 340 27
2011-12-12 09:07:23 51°24.736 2°46.563 344.4 10.6 339 27.5
2011-12-12 09:07:28 51°24.75 2°46.555 345.1 10.7 338 27.5
2011-12-12 09:07:32 51°24.762 2°46.547 345.4 10.9 337 27.3
2011-12-12 09:07:38 51°24.778 2°46.536 344 11 337 27.4
2011-12-12 09:07:43 51°24.792 2°46.528 343.1 10.6 341 26
2011-12-12 09:07:48 51°24.806 2°46.519 344.2 10.7 337 25.6
2011-12-12 09:07:52 51°24.817 2°46.512 344.6 10.9 339 25.5
2011-12-12 09:07:58 51°24.834 2°46.5 344.2 11.2 337 25.6
2011-12-12 09:08:03 51°24.848 2°46.491 343 11.2 339 25.8
2011-12-12 09:08:08 51°24.863 2°46.482 343.7 11.3 338 25.8
2011-12-12 09:08:12 51°24.875 2°46.475 342.9 11 338 24.6
2011-12-12 09:08:18 51°24.891 2°46.464 343.1 10.9 339 24.6
2011-12-12 09:08:23 51°24.906 2°46.455 343.3 11.1 339 25.8
2011-12-12 09:08:28 51°24.92 2°46.445 343.1 10.9 337 24.5
2011-12-12 09:08:32 51°24.931 2°46.438 342.8 11.2 336 25.3
2011-12-12 09:08:38 51°24.948 2°46.426 342.5 11.1 337 24.6
2011-12-12 09:08:43 51°24.962 2°46.417 342.6 11.1 338 25
2011-12-12 09:08:48 51°24.977 2°46.408 343.4 11.2 339 25.1
2011-12-12 09:08:52 51°24.988 2°46.4 343.2 11 337 24.1
2011-12-12 09:08:58 51°25.005 2°46.391 344.1 10.8 340 25.4
2011-12-12 09:09:03 51°25.019 2°46.381 344.8 10.9 339 25.9
2011-12-12 09:09:08 51°25.033 2°46.372 344.1 10.9 336 25.1
2011-12-12 09:09:12 51°25.044 2°46.365 343.3 11 338 25
2011-12-12 09:09:18 51°25.061 2°46.353 342.6 11.1 336 24.4
2011-12-12 09:09:23 51°25.075 2°46.344 342.7 11 336 24.1
2011-12-12 09:09:28 51°25.089 2°46.334 342.2 11 337 23.7
2011-12-12 09:09:32 51°25.1 2°46.325 342.6 11.1 337 25
2011-12-12 09:09:38 51°25.117 2°46.314 342.4 11.1 337 24.9
2011-12-12 09:09:43 51°25.132 2°46.305 342.5 11.2 337 25.3
2011-12-12 09:09:48 51°25.146 2°46.297 342.5 10.8 339 -999
2011-12-12 09:09:53 51°25.159 2°46.288 343.4 10.7 336 24.4
2011-12-12 09:09:58 51°25.173 2°46.278 342.6 10.8 335 26.1
2011-12-12 09:10:03 51°25.187 2°46.269 341.1 10.8 338 25.7
2011-12-12 09:10:08 51°25.2 2°46.259 341.4 10.8 335 25.3
2011-12-12 09:10:12 51°25.212 2°46.252 342.2 10.9 338 25.6
2011-12-12 09:10:17 51°25.226 2°46.243 342.2 10.8 338 25.4
2011-12-12 09:10:23 51°25.242 2°46.231 342.8 10.9 337 25.5
2011-12-12 09:10:28 51°25.256 2°46.222 342.5 11 338 25.2
2011-12-12 09:10:32 51°25.268 2°46.215 343.1 11.1 339 24.8
2011-12-12 09:10:37 51°25.282 2°46.205 343 11.1 338 24.4
2011-12-12 09:10:43 51°25.299 2°46.195 343.4 11.1 338 25
2011-12-12 09:10:48 51°25.314 2°46.188 343.8 11 340 25.8
2011-12-12 09:10:52 51°25.325 2°46.18 344.5 11.2 339 25.7
2011-12-12 09:10:58 51°25.343 2°46.169 344.6 11.3 338 25.9
2011-12-12 09:11:03 51°25.357 2°46.161 343.9 11.2 341 25.9
2011-12-12 09:11:08 51°25.372 2°46.152 343.5 11.4 339 26.6
2011-12-12 09:11:12 51°25.383 2°46.145 343.4 11.1 340 25.2
2011-12-12 09:11:18 51°25.4 2°46.134 343.6 10.9 338 24
2011-12-12 09:11:23 51°25.414 2°46.124 343.1 10.9 337 23.8
2011-12-12 09:11:28 51°25.428 2°46.115 343.4 10.9 338 24.7
2011-12-12 09:11:32 51°25.439 2°46.107 343.2 10.9 337 25.7
2011-12-12 09:11:38 51°25.457 2°46.097 344.5 11.1 338 26.6
2011-12-12 09:11:43 51°25.471 2°46.089 341.9 10.8 341 25.9
2011-12-12 09:11:48 51°25.485 2°46.079 344.1 11 336 24.5
2011-12-12 09:11:52 51°25.496 2°46.073 343.4 10.9 339 24.4
2011-12-12 09:11:58 51°25.513 2°46.061 343.3 11 338 23.3
2011-12-12 09:12:03 51°25.527 2°46.052 342.6 11 337 22.9
2011-12-12 09:12:08 51°25.541 2°46.042 342.7 11.2 338 24
2011-12-12 09:12:12 51°25.553 2°46.035 342.8 11.1 335 24.2
2011-12-12 09:12:18 51°25.569 2°46.025 342.8 10.6 340 24.3
2011-12-12 09:12:23 51°25.583 2°46.015 343 10.7 337 -999
2011-12-12 09:12:28 51°25.597 2°46.006 343.5 10.6 337 24.8
2011-12-12 09:12:33 51°25.611 2°45.997 342.3 10.8 337 23.7
2011-12-12 09:12:38 51°25.625 2°45.989 343 10.7 340 23.7
2011-12-12 09:12:43 51°25.638 2°45.979 343.1 10.9 336 24.5
2011-12-12 09:12:48 51°25.653 2°45.971 343.4 10.9 339 24.1
2011-12-12 09:12:52 51°25.664 2°45.963 343.6 11.1 338 23.3
2011-12-12 09:12:58 51°25.681 2°45.952 343.2 10.9 338 23.9
2011-12-12 09:13:03 51°25.695 2°45.943 343.4 10.9 339 24.1
2011-12-12 09:13:08 51°25.709 2°45.934 344.1 11 339 24.5
2011-12-12 09:13:12 51°25.721 2°45.927 344 10.9 341 26.3
2011-12-12 09:13:18 51°25.738 2°45.917 344.4 11.1 340 26.3
2011-12-12 09:13:23 51°25.752 2°45.909 344.1 10.9 339 25.5
2011-12-12 09:13:28 51°25.766 2°45.901 343.4 10.5 340 25
2011-12-12 09:13:33 51°25.779 2°45.893 344.8 10.5 339 25.7
2011-12-12 09:13:38 51°25.794 2°45.885 345.9 10.6 341 26
2011-12-12 09:13:43 51°25.807 2°45.876 344.4 10.7 338 25.9
2011-12-12 09:13:48 51°25.821 2°45.866 344.2 10.9 338 24.7
2011-12-12 09:13:52 51°25.833 2°45.86 343.4 11 338 24.8
2011-12-12 09:13:58 51°25.85 2°45.849 343.8 10.9 339 25.7
2011-12-12 09:14:03 51°25.864 2°45.84 344 10.9 339 26
2011-12-12 09:14:08 51°25.878 2°45.832 344.2 11.1 339 26.6
2011-12-12 09:14:12 51°25.89 2°45.825 344.5 10.8 341 26.1
2011-12-12 09:14:18 51°25.907 2°45.816 345.6 10.8 341 26.3
2011-12-12 09:14:23 51°25.922 2°45.808 345.8 11.1 341 26.7
2011-12-12 09:14:28 51°25.936 2°45.799 344.5 11 339 25.6
2011-12-12 09:14:32 51°25.947 2°45.792 344.1 11.2 339 24.5
2011-12-12 09:14:38 51°25.965 2°45.781 343.3 11.1 338 23
2011-12-12 09:14:43 51°25.979 2°45.772 343 11.1 338 25.2
2011-12-12 09:14:48 51°25.993 2°45.762 342.8 10.8 337 24.5
2011-12-12 09:14:52 51°26.004 2°45.756 343.4 10.9 337 25.6
2011-12-12 09:14:58 51°26.021 2°45.744 343.4 11 336 26.1
2011-12-12 09:15:03 51°26.035 2°45.734 342.7 11.1 336 26.5
2011-12-12 09:15:08 51°26.049 2°45.724 341.8 11.1 337 26.7
2011-12-12 09:15:12 51°26.061 2°45.717 342.4 11.2 339 27.1
2011-12-12 09:15:18 51°26.078 2°45.705 342.3 11.1 338 27.1
2011-12-12 09:15:23 51°26.092 2°45.696 342 11 338 26.8
2011-12-12 09:15:28 51°26.106 2°45.687 342.7 11.1 339 26.6
2011-12-12 09:15:32 51°26.117 2°45.678 342.5 11.4 336 25.8
2011-12-12 09:15:38 51°26.135 2°45.667 341.1 11.1 337 26.2
2011-12-12 09:15:43 51°26.149 2°45.659 341.6 10.8 338 -999
2011-12-12 09:15:48 51°26.163 2°45.649 343.3 11 335 26.9
2011-12-12 09:15:53 51°26.177 2°45.639 341.9 10.9 336 26.6
2011-12-12 09:15:58 51°26.191 2°45.63 342.7 10.9 337 25.9
2011-12-12 09:16:03 51°26.205 2°45.621 342.5 10.9 339 25.4
2011-12-12 09:16:08 51°26.219 2°45.61 343.2 11.1 336 25.2
2011-12-12 09:16:12 51°26.23 2°45.603 343.2 11 339 25.9
2011-12-12 09:16:18 51°26.247 2°45.591 341.7 10.7 337 26.6
2011-12-12 09:16:23 51°26.261 2°45.583 342.7 10.7 340 28.1
2011-12-12 09:16:28 51°26.275 2°45.575 344.5 10.7 338 27.5
2011-12-12 09:16:32 51°26.286 2°45.567 343.4 10.7 338 27.4
2011-12-12 09:16:38 51°26.302 2°45.557 343.8 10.4 339 25.5
2011-12-12 09:16:43 51°26.315 2°45.549 344.8 10.5 338 -999
2011-12-12 09:16:48 51°26.329 2°45.541 344.1 10.1 339 26.6
2011-12-12 09:16:54 51°26.344 2°45.53 343.7 10.1 338 -999
2011-12-12 09:16:59 51°26.358 2°45.521 343.6 10.5 338 28
2011-12-12 09:17:04 51°26.371 2°45.512 344.8 10.7 336 28.5
2011-12-12 09:17:08 51°26.382 2°45.504 342.3 10.8 338 28.4
2011-12-12 09:17:13 51°26.397 2°45.496 343.5 10.8 339 28.5
2011-12-12 09:17:18 51°26.411 2°45.486 343.7 10.8 335 27.5
2011-12-12 09:17:23 51°26.424 2°45.477 342.1 11 336 28
2011-12-12 09:17:28 51°26.438 2°45.467 342.7 11 336 28.6
2011-12-12 09:17:33 51°26.452 2°45.457 342.7 11.1 337 28.8
2011-12-12 09:17:38 51°26.467 2°45.448 342.2 11.2 338 29.1
2011-12-12 09:17:43 51°26.481 2°45.438 342.7 11.2 337 29
2011-12-12 09:17:48 51°26.495 2°45.428 342.1 11.2 337 28.9
2011-12-12 09:17:52 51°26.506 2°45.42 342.7 10.8 337 28.2
2011-12-12 09:17:58 51°26.523 2°45.409 343 10.9 338 28.6
2011-12-12 09:18:03 51°26.537 2°45.4 343.6 10.8 338 28.1
2011-12-12 09:18:08 51°26.55 2°45.392 343.9 10.7 339 28.2
2011-12-12 09:18:12 51°26.562 2°45.384 344.3 10.9 339 29.3
2011-12-12 09:18:18 51°26.579 2°45.374 345.2 11 339 28.5
2011-12-12 09:18:23 51°26.593 2°45.365 344.1 10.8 338 27.8
2011-12-12 09:18:28 51°26.607 2°45.357 345.6 11 340 29.2
2011-12-12 09:18:32 51°26.619 2°45.35 345.6 10.9 337 28.3
2011-12-12 09:18:38 51°26.635 2°45.338 344.4 10.8 338 28.6
2011-12-12 09:18:43 51°26.649 2°45.328 344.2 11 335 28.9
2011-12-12 09:18:48 51°26.663 2°45.319 343.4 11 337 28.2
2011-12-12 09:18:52 51°26.675 2°45.312 343.1 11 337 28
2011-12-12 09:18:58 51°26.691 2°45.301 343.8 10.9 337 28
2011-12-12 09:19:03 51°26.706 2°45.291 343.9 10.9 338 28.1
2011-12-12 09:19:08 51°26.719 2°45.281 343.2 11 335 28.6
2011-12-12 09:19:12 51°26.731 2°45.274 343.4 11.2 335 28.7
2011-12-12 09:19:18 51°26.748 2°45.261 341.8 10.9 335 28.1
2011-12-12 09:19:23 51°26.761 2°45.251 340.9 11 334 28.7
2011-12-12 09:19:28 51°26.775 2°45.24 341.2 11.2 334 28.5
2011-12-12 09:19:32 51°26.786 2°45.23 339.2 11.2 334 28.7
2011-12-12 09:19:38 51°26.803 2°45.218 339.8 11.2 335 28.5
2011-12-12 09:19:43 51°26.818 2°45.207 340.9 11.4 334 28.6
2011-12-12 09:19:48 51°26.832 2°45.196 340.5 11.3 335 29.1
2011-12-12 09:19:52 51°26.843 2°45.187 339.8 11.3 335 28.5
2011-12-12 09:19:58 51°26.86 2°45.174 340.6 11.5 333 28.7
2011-12-12 09:20:03 51°26.874 2°45.164 339.8 11.2 337 28
2011-12-12 09:20:08 51°26.888 2°45.153 340.7 11.4 334 28.7
2011-12-12 09:20:12 51°26.9 2°45.145 341.8 11.3 336 28.3
2011-12-12 09:20:18 51°26.916 2°45.132 340.8 11.2 335 28.4
2011-12-12 09:20:23 51°26.93 2°45.12 341.7 11.3 333 28.4
2011-12-12 09:20:28 51°26.945 2°45.11 340.9 11.5 335 29.3
2011-12-12 09:20:32 51°26.956 2°45.101 340.5 11.4 333 28.4
2011-12-12 09:20:38 51°26.973 2°45.089 340.8 11.4 336 29.1
2011-12-12 09:20:43 51°26.988 2°45.079 341.9 11.4 337 30.1
2011-12-12 09:20:48 51°27.001 2°45.069 340.3 10.8 337 -999
2011-12-12 09:20:53 51°27.015 2°45.059 342.4 10.9 335 30.4
2011-12-12 09:20:58 51°27.029 2°45.049 341.9 10.9 334 28.5
2011-12-12 09:21:03 51°27.043 2°45.039 340.5 10.7 337 29.7
2011-12-12 09:21:08 51°27.056 2°45.03 341.2 10.9 335 28.3
2011-12-12 09:21:12 51°27.068 2°45.022 341.3 10.9 335 28.8
2011-12-12 09:21:18 51°27.084 2°45.011 341.9 11.1 338 29.9
2011-12-12 09:21:23 51°27.099 2°45 341.9 11 335 29.4
2011-12-12 09:21:28 51°27.112 2°44.991 341.7 10.9 337 28.6
2011-12-12 09:21:32 51°27.123 2°44.983 341.8 11 335 29.3
2011-12-12 09:21:37 51°27.138 2°44.972 341.3 11 337 28.3
2011-12-12 09:21:43 51°27.154 2°44.962 342 11 340 29.1
2011-12-12 09:21:48 51°27.169 2°44.954 340.3 10.6 343 -999
2011-12-12 09:21:54 51°27.184 2°44.942 343.8 10.6 334 27.3
2011-12-12 09:21:59 51°27.198 2°44.933 340.8 10.2 338 28.2
2011-12-12 09:22:04 51°27.211 2°44.924 340 10.4 337 -999
2011-12-12 09:22:09 51°27.225 2°44.916 343.3 10.5 337 27.1
2011-12-12 09:22:14 51°27.237 2°44.906 340.2 10.4 337 28.1
2011-12-12 09:22:19 51°27.251 2°44.897 342.7 10.7 335 28
2011-12-12 09:22:24 51°27.265 2°44.888 341.1 10.6 336 28.7
2011-12-12 09:22:29 51°27.279 2°44.878 341.4 10.7 338 27.7
2011-12-12 09:22:34 51°27.292 2°44.868 341.9 10.9 335 27.5
2011-12-12 09:22:39 51°27.306 2°44.859 341.2 10.9 338 27.8
2011-12-12 09:22:44 51°27.321 2°44.849 343.2 11.2 335 28.6
2011-12-12 09:22:48 51°27.332 2°44.84 340.9 11.1 335 28.3
2011-12-12 09:22:53 51°27.346 2°44.831 341.3 11.2 337 28.1
2011-12-12 09:22:58 51°27.361 2°44.821 341.9 11.2 338 27.7
2011-12-12 09:23:03 51°27.375 2°44.811 341.9 11.3 338 27.4
2011-12-12 09:23:08 51°27.39 2°44.801 342.4 11.4 335 27.4
2011-12-12 09:23:12 51°27.401 2°44.793 341.9 11.3 338 25.4
2011-12-12 09:23:18 51°27.418 2°44.781 341.1 11.4 335 24.9
2011-12-12 09:23:23 51°27.433 2°44.771 341.4 11.3 335 24.9
2011-12-12 09:23:28 51°27.447 2°44.76 341.2 11.5 336 25.5
2011-12-12 09:23:32 51°27.459 2°44.752 341.2 11 336 24.9
2011-12-12 09:23:38 51°27.476 2°44.742 340.3 10.9 341 -999
2011-12-12 09:23:44 51°27.492 2°44.73 342.2 10.8 335 -999
2011-12-12 09:23:49 51°27.506 2°44.719 340.2 11 335 25.6
2011-12-12 09:23:54 51°27.52 2°44.709 340.3 11.1 335 25.5
2011-12-12 09:23:59 51°27.534 2°44.698 340.3 11.3 334 26.2
2011-12-12 09:24:04 51°27.549 2°44.688 340.2 11.3 336 26.4
2011-12-12 09:24:08 51°27.56 2°44.681 340.8 11.4 337 26.8
2011-12-12 09:24:13 51°27.575 2°44.67 340.9 11.4 336 27.3
2011-12-12 09:24:18 51°27.589 2°44.66 340.9 11.3 336 26.2
2011-12-12 09:24:23 51°27.603 2°44.649 340.7 11.2 336 26.6
2011-12-12 09:24:28 51°27.617 2°44.64 341 11.2 337 27.5
2011-12-12 09:24:32 51°27.629 2°44.632 341.4 11.4 338 28.4
2011-12-12 09:24:38 51°27.647 2°44.619 341.4 11.3 335 27.7
2011-12-12 09:24:43 51°27.661 2°44.609 340.5 11.4 334 27.1
2011-12-12 09:24:48 51°27.675 2°44.599 340.3 11.2 336 27.5
2011-12-12 09:24:53 51°27.689 2°44.589 340.4 11.2 337 26.9
2011-12-12 09:24:58 51°27.704 2°44.579 341.7 11.4 338 27.5
2011-12-12 09:25:03 51°27.718 2°44.568 340.8 11.3 335 26.6
2011-12-12 09:25:08 51°27.732 2°44.558 339.9 11 335 27.1
2011-12-12 09:25:12 51°27.743 2°44.551 339.9 10.8 339 28.5
2011-12-12 09:25:18 51°27.76 2°44.539 341.2 10.9 336 27.2
2011-12-12 09:25:23 51°27.774 2°44.53 341.2 11 337 28.2
2011-12-12 09:25:28 51°27.788 2°44.52 341.2 11.1 336 28.2
2011-12-12 09:25:32 51°27.799 2°44.511 341.2 11.4 334 27.7
2011-12-12 09:25:38 51°27.817 2°44.499 340.5 11.3 337 27.3
2011-12-12 09:25:43 51°27.831 2°44.489 340.9 11.3 336 27.8
2011-12-12 09:25:48 51°27.845 2°44.479 341.3 11.3 338 27.5
2011-12-12 09:25:52 51°27.857 2°44.471 341.6 11.4 336 26.5
2011-12-12 09:25:58 51°27.874 2°44.459 341.8 11.4 336 26.2
2011-12-12 09:26:03 51°27.888 2°44.448 341.3 11.4 336 26.6
2011-12-12 09:26:08 51°27.903 2°44.438 341 11.4 336 26.6
2011-12-12 09:26:12 51°27.914 2°44.429 340.2 11.5 336 26.5
2011-12-12 09:26:18 51°27.931 2°44.417 339.6 11 334 25.4
2011-12-12 09:26:23 51°27.945 2°44.408 341.3 11 337 25.7
2011-12-12 09:26:28 51°27.959 2°44.397 342.1 11.2 334 26.1
2011-12-12 09:26:32 51°27.971 2°44.389 340.3 11.3 336 26.2
2011-12-12 09:26:38 51°27.987 2°44.377 340.8 11.1 336 27
2011-12-12 09:26:43 51°28.002 2°44.367 341.3 11.2 336 26.9
2011-12-12 09:26:48 51°28.016 2°44.357 341.5 11.2 335 28.1
2011-12-12 09:26:52 51°28.027 2°44.348 340.8 11.3 338 28.7
2011-12-12 09:26:58 51°28.044 2°44.335 341.4 11.4 333 28.2
2011-12-12 09:27:03 51°28.059 2°44.326 341.6 11.5 337 28.8
2011-12-12 09:27:08 51°28.073 2°44.317 341.2 11.1 339 28.2
2011-12-12 09:27:13 51°28.088 2°44.308 342.7 11.2 338 29.4
2011-12-12 09:27:18 51°28.102 2°44.299 342.7 11.3 338 29.3
2011-12-12 09:27:23 51°28.116 2°44.289 341.9 11.1 336 29
2011-12-12 09:27:28 51°28.131 2°44.281 341.9 11 340 29.9
2011-12-12 09:27:32 51°28.142 2°44.272 342.5 11.3 334 30.2
2011-12-12 09:27:38 51°28.159 2°44.261 341.6 11.3 340 30.3
2011-12-12 09:27:43 51°28.173 2°44.25 341.9 11.1 335 29.4
2011-12-12 09:27:48 51°28.187 2°44.242 341.9 11 338 29.3
2011-12-12 09:27:52 51°28.199 2°44.234 342.2 10.9 335 28.5
2011-12-12 09:27:58 51°28.215 2°44.222 342 10.9 336 28.8
2011-12-12 09:28:03 51°28.229 2°44.213 342.2 10.8 339 28.2
2011-12-12 09:28:08 51°28.243 2°44.204 342.3 11 336 28.4
2011-12-12 09:28:12 51°28.255 2°44.197 342.8 11 339 28.1
2011-12-12 09:28:18 51°28.272 2°44.185 342.8 11 335 28.3
2011-12-12 09:28:23 51°28.286 2°44.176 342.4 11.1 339 29.8
2011-12-12 09:28:28 51°28.3 2°44.165 342.2 11.3 333 29.8
2011-12-12 09:28:32 51°28.312 2°44.158 340.5 11.3 337 29.8
2011-12-12 09:28:38 51°28.329 2°44.145 340.4 11.1 335 30.2
2011-12-12 09:28:43 51°28.343 2°44.135 340.1 11.2 337 30.9
2011-12-12 09:28:48 51°28.357 2°44.126 340.4 11.3 338 31.9
2011-12-12 09:28:52 51°28.368 2°44.117 339.5 11.2 336 31.5
2011-12-12 09:28:58 51°28.386 2°44.105 340 11.1 337 30.9
2011-12-12 09:29:04 51°28.402 2°44.094 339.6 11 336 31.8
2011-12-12 09:29:08 51°28.413 2°44.086 341.4 11.1 336 31.4
2011-12-12 09:29:13 51°28.427 2°44.075 339.8 11 335 30.9
2011-12-12 09:29:18 51°28.441 2°44.064 339.4 11.1 334 30.9
2011-12-12 09:29:23 51°28.455 2°44.055 339.8 11.4 338 30.2
2011-12-12 09:29:28 51°28.47 2°44.043 340.6 11.3 333 29.4
2011-12-12 09:29:32 51°28.481 2°44.036 339.3 10.8 339 28.1
2011-12-12 09:29:38 51°28.498 2°44.025 341.9 11.1 337 30
2011-12-12 09:29:43 51°28.512 2°44.016 342.6 11 338 30.6
2011-12-12 09:29:48 51°28.526 2°44.006 341.6 11.1 338 32.1
2011-12-12 09:29:52 51°28.537 2°43.998 342 11.1 337 30.7
2011-12-12 09:29:58 51°28.554 2°43.986 341.2 10.9 335 30.2
2011-12-12 09:30:03 51°28.568 2°43.977 340.4 10.9 337 30.6
2011-12-12 09:30:08 51°28.582 2°43.968 340.9 11.2 337 31
2011-12-12 09:30:12 51°28.593 2°43.96 341 11.2 335 31.1
2011-12-12 09:30:18 51°28.61 2°43.947 340.4 11.2 336 31.1
2011-12-12 09:30:23 51°28.624 2°43.938 341.2 11 337 30.1
2011-12-12 09:30:28 51°28.638 2°43.929 341.8 10.8 339 30.8
2011-12-12 09:30:32 51°28.65 2°43.923 343.2 11 337 30.7
2011-12-12 09:30:38 51°28.666 2°43.912 341.9 10.7 339 29.9
2011-12-12 09:30:43 51°28.68 2°43.904 341.5 10.7 341 30.6
2011-12-12 09:30:48 51°28.694 2°43.896 342.9 10.2 340 -999
2011-12-12 09:30:53 51°28.707 2°43.886 342.2 10.5 337 30.2
2011-12-12 09:30:58 51°28.72 2°43.877 342.4 10.6 335 31.1
2011-12-12 09:31:03 51°28.734 2°43.868 340.6 10.6 338 30.5
2011-12-12 09:31:08 51°28.748 2°43.859 341.1 10.8 337 30.2
2011-12-12 09:31:13 51°28.761 2°43.851 341.6 10.8 340 29.9
2011-12-12 09:31:18 51°28.775 2°43.84 341.8 10.7 334 28.3
2011-12-12 09:31:23 51°28.788 2°43.83 340.3 10.8 336 30.3
2011-12-12 09:31:28 51°28.803 2°43.821 342.7 11 336 30.7
2011-12-12 09:31:32 51°28.814 2°43.813 340.9 11.1 335 30.5
2011-12-12 09:31:38 51°28.831 2°43.802 340.7 11.3 337 31.2
2011-12-12 09:31:43 51°28.845 2°43.791 339.4 11.3 338 30.3
2011-12-12 09:31:48 51°28.86 2°43.782 341.8 11.4 336 28.9
2011-12-12 09:31:52 51°28.871 2°43.774 339.9 11.2 338 29.7
2011-12-12 09:31:58 51°28.889 2°43.761 341.7 11.3 334 30.3
2011-12-12 09:32:03 51°28.903 2°43.751 340.4 11.3 337 29.3
2011-12-12 09:32:08 51°28.917 2°43.741 340.9 11.4 335 29.4
2011-12-12 09:32:12 51°28.929 2°43.733 339.5 11.2 337 30.8
2011-12-12 09:32:18 51°28.946 2°43.722 340.8 11.4 339 32.4
2011-12-12 09:32:23 51°28.961 2°43.714 341.1 11.1 340 32.1
2011-12-12 09:32:28 51°28.974 2°43.704 341.7 11.1 339 31.1
2011-12-12 09:32:32 51°28.986 2°43.697 342 11.2 338 30
2011-12-12 09:32:37 51°29 2°43.687 340.5 10.6 337 27.7
2011-12-12 09:32:43 51°29.016 2°43.676 341.3 10.8 335 30.2
2011-12-12 09:32:48 51°29.03 2°43.666 341.4 10.9 335 30
2011-12-12 09:32:52 51°29.041 2°43.658 339.4 11 336 28.1
2011-12-12 09:32:57 51°29.055 2°43.649 341.4 11.2 338 30.2
2011-12-12 09:33:03 51°29.072 2°43.636 340.7 11.1 334 29.7
2011-12-12 09:33:08 51°29.086 2°43.625 340.2 11.3 335 27.8